sensor_id;sensor_type;location;lat;lon;timestamp;P1;P2;P0
44871;PMS7003;30602;51.060;17.226;2024-02-16T00:02:53;53;43;27
44871;PMS7003;30602;51.060;17.226;2024-02-16T00:06:59;55;43;27
44871;PMS7003;30602;51.060;17.226;2024-02-16T00:10:26;56;43;28
44871;PMS7003;30602;51.060;17.226;2024-02-16T00:14:01;57;44;27
44871;PMS7003;30602;51.060;17.226;2024-02-16T00:17:47;55;48;29
44871;PMS7003;30602;51.060;17.226;2024-02-16T00:21:58;58;47;30
44871;PMS7003;30602;51.060;17.226;2024-02-16T00:25:56;53;40;27
44871;PMS7003;30602;51.060;17.226;2024-02-16T00:29:25;50;42;27
44871;PMS7003;30602;51.060;17.226;2024-02-16T00:32:53;54;44;27
44871;PMS7003;30602;51.060;17.226;2024-02-16T00:36:54;59;45;28
44871;PMS7003;30602;51.060;17.226;2024-02-16T00:40:20;56;46;27
44871;PMS7003;30602;51.060;17.226;2024-02-16T00:43:51;59;47;30
44871;PMS7003;30602;51.060;17.226;2024-02-16T00:47:52;54;44;27
44871;PMS7003;30602;51.060;17.226;2024-02-16T00:51:22;61;45;29
44871;PMS7003;30602;51.060;17.226;2024-02-16T00:54:54;57;46;28
44871;PMS7003;30602;51.060;17.226;2024-02-16T00:59:04;55;46;27
44871;PMS7003;30602;51.060;17.226;2024-02-16T01:02:31;54;45;30
44871;PMS7003;30602;51.060;17.226;2024-02-16T01:06:37;64;48;29
44871;PMS7003;30602;51.060;17.226;2024-02-16T01:10:01;55;44;28
44871;PMS7003;30602;51.060;17.226;2024-02-16T01:13:34;60;46;29
44871;PMS7003;30602;51.060;17.226;2024-02-16T01:17:05;54;45;29
44871;PMS7003;30602;51.060;17.226;2024-02-16T01:21:10;55;44;29
44871;PMS7003;30602;51.060;17.226;2024-02-16T01:24:36;51;43;29
44871;PMS7003;30602;51.060;17.226;2024-02-16T01:28:10;62;48;28
44871;PMS7003;30602;51.060;17.226;2024-02-16T01:32:10;61;49;29
44871;PMS7003;30602;51.060;17.226;2024-02-16T01:36:14;63;50;29
44871;PMS7003;30602;51.060;17.226;2024-02-16T01:39:43;63;49;29
44871;PMS7003;30602;51.060;17.226;2024-02-16T01:43:53;64;49;29
44871;PMS7003;30602;51.060;17.226;2024-02-16T01:47:27;57;45;28
44871;PMS7003;30602;51.060;17.226;2024-02-16T01:51:29;60;47;28
44871;PMS7003;30602;51.060;17.226;2024-02-16T01:54:56;52;43;28
44871;PMS7003;30602;51.060;17.226;2024-02-16T01:58:28;56;46;29
44871;PMS7003;30602;51.060;17.226;2024-02-16T02:02:01;63;48;29
44871;PMS7003;30602;51.060;17.226;2024-02-16T02:05:32;58;46;27
44871;PMS7003;30602;51.060;17.226;2024-02-16T02:09:02;52;43;26
44871;PMS7003;30602;51.060;17.226;2024-02-16T02:12:27;53;42;28
44871;PMS7003;30602;51.060;17.226;2024-02-16T02:16:21;56;45;28
44871;PMS7003;30602;51.060;17.226;2024-02-16T02:19:59;59;47;30
44871;PMS7003;30602;51.060;17.226;2024-02-16T02:24:07;60;47;30
44871;PMS7003;30602;51.060;17.226;2024-02-16T02:27:30;63;50;29
44871;PMS7003;30602;51.060;17.226;2024-02-16T02:30:57;60;43;30
44871;PMS7003;30602;51.060;17.226;2024-02-16T02:34:33;58;46;30
44871;PMS7003;30602;51.060;17.226;2024-02-16T02:37:57;50;42;28
44871;PMS7003;30602;51.060;17.226;2024-02-16T02:41:32;60;48;29
44871;PMS7003;30602;51.060;17.226;2024-02-16T02:45:02;55;44;25
44871;PMS7003;30602;51.060;17.226;2024-02-16T02:49:00;57;47;27
44871;PMS7003;30602;51.060;17.226;2024-02-16T02:52:56;58;46;29
44871;PMS7003;30602;51.060;17.226;2024-02-16T02:56:25;60;47;28
44871;PMS7003;30602;51.060;17.226;2024-02-16T03:00:23;61;45;30
44871;PMS7003;30602;51.060;17.226;2024-02-16T03:03:55;47;40;27
44871;PMS7003;30602;51.060;17.226;2024-02-16T03:07:24;52;44;26
44871;PMS7003;30602;51.060;17.226;2024-02-16T03:10:48;55;45;28
44871;PMS7003;30602;51.060;17.226;2024-02-16T03:14:16;52;43;27
44871;PMS7003;30602;51.060;17.226;2024-02-16T03:17:39;48;41;25
44871;PMS7003;30602;51.060;17.226;2024-02-16T03:21:15;57;45;27
44871;PMS7003;30602;51.060;17.226;2024-02-16T03:24:42;50;44;28
44871;PMS7003;30602;51.060;17.226;2024-02-16T03:28:12;42;39;26
44871;PMS7003;30602;51.060;17.226;2024-02-16T03:31:40;49;37;25
44871;PMS7003;30602;51.060;17.226;2024-02-16T03:35:08;56;44;26
44871;PMS7003;30602;51.060;17.226;2024-02-16T03:38:40;54;46;27
44871;PMS7003;30602;51.060;17.226;2024-02-16T03:42:11;52;44;27
44871;PMS7003;30602;51.060;17.226;2024-02-16T03:45:40;47;39;26
44871;PMS7003;30602;51.060;17.226;2024-02-16T03:49:05;54;41;26
44871;PMS7003;30602;51.060;17.226;2024-02-16T03:52:34;59;46;27
44871;PMS7003;30602;51.060;17.226;2024-02-16T03:56:25;53;44;26
44871;PMS7003;30602;51.060;17.226;2024-02-16T03:59:55;50;43;27
44871;PMS7003;30602;51.060;17.226;2024-02-16T04:03:24;61;46;26
44871;PMS7003;30602;51.060;17.226;2024-02-16T04:06:57;54;45;26
44871;PMS7003;30602;51.060;17.226;2024-02-16T04:10:24;44;41;27
44871;PMS7003;30602;51.060;17.226;2024-02-16T04:13:54;48;40;26
44871;PMS7003;30602;51.060;17.226;2024-02-16T04:17:19;47;41;23
44871;PMS7003;30602;51.060;17.226;2024-02-16T04:20:49;49;40;21
44871;PMS7003;30602;51.060;17.226;2024-02-16T04:24:12;46;40;24
44871;PMS7003;30602;51.060;17.226;2024-02-16T04:27:38;48;41;26
44871;PMS7003;30602;51.060;17.226;2024-02-16T04:31:06;53;46;27
44871;PMS7003;30602;51.060;17.226;2024-02-16T04:34:32;49;42;26
44871;PMS7003;30602;51.060;17.226;2024-02-16T04:37:58;48;40;22
44871;PMS7003;30602;51.060;17.226;2024-02-16T04:41:23;46;38;23
44871;PMS7003;30602;51.060;17.226;2024-02-16T04:44:57;52;43;24
44871;PMS7003;30602;51.060;17.226;2024-02-16T04:48:21;45;40;25
44871;PMS7003;30602;51.060;17.226;2024-02-16T04:51:56;51;41;25
44871;PMS7003;30602;51.060;17.226;2024-02-16T04:55:27;52;44;25
44871;PMS7003;30602;51.060;17.226;2024-02-16T04:58:52;57;43;25
44871;PMS7003;30602;51.060;17.226;2024-02-16T05:02:21;51;43;26
44871;PMS7003;30602;51.060;17.226;2024-02-16T05:05:56;50;42;23
44871;PMS7003;30602;51.060;17.226;2024-02-16T05:09:21;44;37;23
44871;PMS7003;30602;51.060;17.226;2024-02-16T05:12:53;53;44;26
44871;PMS7003;30602;51.060;17.226;2024-02-16T05:16:25;53;40;19
44871;PMS7003;30602;51.060;17.226;2024-02-16T05:19:52;57;46;28
44871;PMS7003;30602;51.060;17.226;2024-02-16T05:23:17;52;43;26
44871;PMS7003;30602;51.060;17.226;2024-02-16T05:26:43;50;42;28
44871;PMS7003;30602;51.060;17.226;2024-02-16T05:30:18;59;45;27
44871;PMS7003;30602;51.060;17.226;2024-02-16T05:33:54;56;44;26
44871;PMS7003;30602;51.060;17.226;2024-02-16T05:37:25;55;42;27
44871;PMS7003;30602;51.060;17.226;2024-02-16T05:41:00;56;45;27
44871;PMS7003;30602;51.060;17.226;2024-02-16T05:44:27;48;43;26
44871;PMS7003;30602;51.060;17.226;2024-02-16T05:47:58;52;44;27
44871;PMS7003;30602;51.060;17.226;2024-02-16T05:51:26;53;41;24
44871;PMS7003;30602;51.060;17.226;2024-02-16T05:54:50;49;41;27
44871;PMS7003;30602;51.060;17.226;2024-02-16T05:58:48;53;42;26
44871;PMS7003;30602;51.060;17.226;2024-02-16T06:02:27;46;38;24
44871;PMS7003;30602;51.060;17.226;2024-02-16T06:06:25;50;42;24
44871;PMS7003;30602;51.060;17.226;2024-02-16T06:09:50;51;43;24
44871;PMS7003;30602;51.060;17.226;2024-02-16T06:13:18;37;32;19
44871;PMS7003;30602;51.060;17.226;2024-02-16T06:17:23;45;39;22
44871;PMS7003;30602;51.060;17.226;2024-02-16T06:21:13;46;40;22
44871;PMS7003;30602;51.060;17.226;2024-02-16T06:24:44;48;39;23
44871;PMS7003;30602;51.060;17.226;2024-02-16T06:28:21;53;45;25
44871;PMS7003;30602;51.060;17.226;2024-02-16T06:31:53;53;42;25
44871;PMS7003;30602;51.060;17.226;2024-02-16T06:35:13;44;34;18
44871;PMS7003;30602;51.060;17.226;2024-02-16T06:38:39;43;36;22
44871;PMS7003;30602;51.060;17.226;2024-02-16T06:42:13;45;35;23
44871;PMS7003;30602;51.060;17.226;2024-02-16T06:46:07;43;39;25
44871;PMS7003;30602;51.060;17.226;2024-02-16T06:49:33;48;41;25
44871;PMS7003;30602;51.060;17.226;2024-02-16T06:53:23;45;41;24
44871;PMS7003;30602;51.060;17.226;2024-02-16T06:56:42;47;40;24
44871;PMS7003;30602;51.060;17.226;2024-02-16T07:00:14;53;44;25
44871;PMS7003;30602;51.060;17.226;2024-02-16T07:03:40;48;39;25
44871;PMS7003;30602;51.060;17.226;2024-02-16T07:07:09;58;45;25
44871;PMS7003;30602;51.060;17.226;2024-02-16T07:10:41;48;41;25
44871;PMS7003;30602;51.060;17.226;2024-02-16T07:14:08;51;42;26
44871;PMS7003;30602;51.060;17.226;2024-02-16T07:18:24;51;43;26
44871;PMS7003;30602;51.060;17.226;2024-02-16T07:20:27;53;41;25
44871;PMS7003;30602;51.060;17.226;2024-02-16T07:23:58;56;44;25
44871;PMS7003;30602;51.060;17.226;2024-02-16T07:27:33;51;43;26
44871;PMS7003;30602;51.060;17.226;2024-02-16T07:31:32;59;45;25
44871;PMS7003;30602;51.060;17.226;2024-02-16T07:35:52;52;41;25
44871;PMS7003;30602;51.060;17.226;2024-02-16T07:39:20;48;42;25
44871;PMS7003;30602;51.060;17.226;2024-02-16T07:43:39;53;44;28
44871;PMS7003;30602;51.060;17.226;2024-02-16T07:47:08;65;51;31
44871;PMS7003;30602;51.060;17.226;2024-02-16T07:50:40;61;51;31
44871;PMS7003;30602;51.060;17.226;2024-02-16T07:54:12;63;49;30
44871;PMS7003;30602;51.060;17.226;2024-02-16T07:57:37;47;43;27
44871;PMS7003;30602;51.060;17.226;2024-02-16T08:01:19;60;49;29
44871;PMS7003;30602;51.060;17.226;2024-02-16T08:05:55;53;46;29
44871;PMS7003;30602;51.060;17.226;2024-02-16T08:09:28;53;44;28
44871;PMS7003;30602;51.060;17.226;2024-02-16T08:12:58;54;47;29
44871;PMS7003;30602;51.060;17.226;2024-02-16T08:16:24;54;42;28
44871;PMS7003;30602;51.060;17.226;2024-02-16T08:19:54;60;47;29
44871;PMS7003;30602;51.060;17.226;2024-02-16T08:25:13;56;44;27
44871;PMS7003;30602;51.060;17.226;2024-02-16T08:29:20;55;44;28
44871;PMS7003;30602;51.060;17.226;2024-02-16T08:32:45;52;45;30
44871;PMS7003;30602;51.060;17.226;2024-02-16T08:36:10;56;45;28
44871;PMS7003;30602;51.060;17.226;2024-02-16T08:39:44;53;45;28
44871;PMS7003;30602;51.060;17.226;2024-02-16T08:43:44;45;40;26
44871;PMS7003;30602;51.060;17.226;2024-02-16T08:47:38;49;41;26
44871;PMS7003;30602;51.060;17.226;2024-02-16T08:51:03;40;37;24
44871;PMS7003;30602;51.060;17.226;2024-02-16T08:54:59;43;37;23
44871;PMS7003;30602;51.060;17.226;2024-02-16T08:58:50;36;32;21
44871;PMS7003;30602;51.060;17.226;2024-02-16T09:02:25;36;32;22
44871;PMS7003;30602;51.060;17.226;2024-02-16T09:06:30;35;32;21
44871;PMS7003;30602;51.060;17.226;2024-02-16T09:09:58;32;26;19
44871;PMS7003;30602;51.060;17.226;2024-02-16T09:13:35;33;23;14
44871;PMS7003;30602;51.060;17.226;2024-02-16T09:16:57;28;24;16
44871;PMS7003;30602;51.060;17.226;2024-02-16T09:20:24;26;22;14
44871;PMS7003;30602;51.060;17.226;2024-02-16T09:23:47;24;21;15
44871;PMS7003;30602;51.060;17.226;2024-02-16T09:27:11;20;19;14
44871;PMS7003;30602;51.060;17.226;2024-02-16T09:30:33;21;21;16
44871;PMS7003;30602;51.060;17.226;2024-02-16T09:33:52;22;19;14
44871;PMS7003;30602;51.060;17.226;2024-02-16T09:37:47;32;28;18
44871;PMS7003;30602;51.060;17.226;2024-02-16T09:41:12;28;24;16
44871;PMS7003;30602;51.060;17.226;2024-02-16T09:45:12;32;24;17
44871;PMS7003;30602;51.060;17.226;2024-02-16T09:48:46;24;24;16
44871;PMS7003;30602;51.060;17.226;2024-02-16T09:52:49;34;26;17
44871;PMS7003;30602;51.060;17.226;2024-02-16T09:56:42;33;25;19
44871;PMS7003;30602;51.060;17.226;2024-02-16T10:00:06;24;24;18
44871;PMS7003;30602;51.060;17.226;2024-02-16T10:11:44;26;25;16
44871;PMS7003;30602;51.060;17.226;2024-02-16T10:15:23;21;19;13
44871;PMS7003;30602;51.060;17.226;2024-02-16T10:18:46;21;18;14
44871;PMS7003;30602;51.060;17.226;2024-02-16T10:22:38;24;20;13
44871;PMS7003;30602;51.060;17.226;2024-02-16T10:26:03;20;20;13
44871;PMS7003;30602;51.060;17.226;2024-02-16T10:29:25;18;17;14
44871;PMS7003;30602;51.060;17.226;2024-02-16T10:32:51;23;20;16
44871;PMS7003;30602;51.060;17.226;2024-02-16T10:36:11;15;15;12
44871;PMS7003;30602;51.060;17.226;2024-02-16T10:39:35;19;18;12
44871;PMS7003;30602;51.060;17.226;2024-02-16T10:43:11;21;18;13
44871;PMS7003;30602;51.060;17.226;2024-02-16T10:46:50;25;21;14
44871;PMS7003;30602;51.060;17.226;2024-02-16T10:51:08;21;17;13
44871;PMS7003;30602;51.060;17.226;2024-02-16T10:55:36;18;16;13
44871;PMS7003;30602;51.060;17.226;2024-02-16T10:59:00;19;16;13
44871;PMS7003;30602;51.060;17.226;2024-02-16T11:06:45;17;13;10
44871;PMS7003;30602;51.060;17.226;2024-02-16T11:10:16;14;12;8
44871;PMS7003;30602;51.060;17.226;2024-02-16T11:13:38;19;16;13
44871;PMS7003;30602;51.060;17.226;2024-02-16T11:17:02;15;14;11
44871;PMS7003;30602;51.060;17.226;2024-02-16T11:20:37;21;17;12
44871;PMS7003;30602;51.060;17.226;2024-02-16T11:27:31;16;15;11
44871;PMS7003;30602;51.060;17.226;2024-02-16T11:30:59;22;17;11
44871;PMS7003;30602;51.060;17.226;2024-02-16T11:34:23;16;14;10
44871;PMS7003;30602;51.060;17.226;2024-02-16T11:37:46;17;15;10
44871;PMS7003;30602;51.060;17.226;2024-02-16T11:41:06;14;14;11
44871;PMS7003;30602;51.060;17.226;2024-02-16T11:44:25;16;12;9
44871;PMS7003;30602;51.060;17.226;2024-02-16T11:48:24;11;11;7
44871;PMS7003;30602;51.060;17.226;2024-02-16T11:52:21;10;10;8
44871;PMS7003;30602;51.060;17.226;2024-02-16T11:56:21;11;11;8
44871;PMS7003;30602;51.060;17.226;2024-02-16T11:59:47;12;11;8
44871;PMS7003;30602;51.060;17.226;2024-02-16T12:03:10;14;12;10
44871;PMS7003;30602;51.060;17.226;2024-02-16T12:07:53;14;11;9
44871;PMS7003;30602;51.060;17.226;2024-02-16T12:11:13;14;11;9
44871;PMS7003;30602;51.060;17.226;2024-02-16T12:15:09;13;9;8
44871;PMS7003;30602;51.060;17.226;2024-02-16T12:18:50;19;14;10
44871;PMS7003;30602;51.060;17.226;2024-02-16T12:22:29;14;11;9
44871;PMS7003;30602;51.060;17.226;2024-02-16T12:25:52;12;12;10
44871;PMS7003;30602;51.060;17.226;2024-02-16T12:29:47;11;11;7
44871;PMS7003;30602;51.060;17.226;2024-02-16T12:33:38;14;12;9
44871;PMS7003;30602;51.060;17.226;2024-02-16T12:37:02;11;9;7
44871;PMS7003;30602;51.060;17.226;2024-02-16T12:40:29;10;10;7
44871;PMS7003;30602;51.060;17.226;2024-02-16T12:44:30;13;10;7
44871;PMS7003;30602;51.060;17.226;2024-02-16T12:48:24;10;9;7
44871;PMS7003;30602;51.060;17.226;2024-02-16T12:51:49;13;12;7
44871;PMS7003;30602;51.060;17.226;2024-02-16T12:55:14;10;9;7
44871;PMS7003;30602;51.060;17.226;2024-02-16T12:58:37;10;10;7
44871;PMS7003;30602;51.060;17.226;2024-02-16T13:01:59;12;12;8
44871;PMS7003;30602;51.060;17.226;2024-02-16T13:05:30;11;10;8
44871;PMS7003;30602;51.060;17.226;2024-02-16T13:09:00;10;10;7
44871;PMS7003;30602;51.060;17.226;2024-02-16T13:12:23;13;11;8
44871;PMS7003;30602;51.060;17.226;2024-02-16T13:15:42;15;8;6
44871;PMS7003;30602;51.060;17.226;2024-02-16T13:19:06;6;6;4
44871;PMS7003;30602;51.060;17.226;2024-02-16T13:22:39;9;6;5
44871;PMS7003;30602;51.060;17.226;2024-02-16T13:26:14;9;7;5
44871;PMS7003;30602;51.060;17.226;2024-02-16T13:29:40;10;6;5
44871;PMS7003;30602;51.060;17.226;2024-02-16T13:33:05;6;5;4
44871;PMS7003;30602;51.060;17.226;2024-02-16T13:36:28;6;5;4
44871;PMS7003;30602;51.060;17.226;2024-02-16T13:39:52;6;5;5
44871;PMS7003;30602;51.060;17.226;2024-02-16T13:43:36;6;5;5
44871;PMS7003;30602;51.060;17.226;2024-02-16T13:47:07;5;5;4
44871;PMS7003;30602;51.060;17.226;2024-02-16T13:50:29;3;3;2
44871;PMS7003;30602;51.060;17.226;2024-02-16T13:53:55;6;5;4
44871;PMS7003;30602;51.060;17.226;2024-02-16T13:57:22;6;5;4
44871;PMS7003;30602;51.060;17.226;2024-02-16T14:00:43;6;5;5
44871;PMS7003;30602;51.060;17.226;2024-02-16T14:04:13;5;5;4
44871;PMS7003;30602;51.060;17.226;2024-02-16T14:08:14;5;4;3
44871;PMS7003;30602;51.060;17.226;2024-02-16T14:11:53;5;4;3
44871;PMS7003;30602;51.060;17.226;2024-02-16T14:15:34;6;5;4
44871;PMS7003;30602;51.060;17.226;2024-02-16T14:19:06;6;5;4
44871;PMS7003;30602;51.060;17.226;2024-02-16T14:22:46;7;5;5
44871;PMS7003;30602;51.060;17.226;2024-02-16T14:26:10;7;5;4
44871;PMS7003;30602;51.060;17.226;2024-02-16T14:30:49;5;5;3
44871;PMS7003;30602;51.060;17.226;2024-02-16T14:34:41;7;5;4
44871;PMS7003;30602;51.060;17.226;2024-02-16T14:38:12;11;6;5
44871;PMS7003;30602;51.060;17.226;2024-02-16T14:41:57;7;6;5
44871;PMS7003;30602;51.060;17.226;2024-02-16T14:45:37;7;6;5
44871;PMS7003;30602;51.060;17.226;2024-02-16T14:49:07;8;6;5
44871;PMS7003;30602;51.060;17.226;2024-02-16T14:52:27;9;7;5
44871;PMS7003;30602;51.060;17.226;2024-02-16T14:57:50;8;6;5
44871;PMS7003;30602;51.060;17.226;2024-02-16T15:01:19;10;9;8
44871;PMS7003;30602;51.060;17.226;2024-02-16T15:04:44;9;8;6
44871;PMS7003;30602;51.060;17.226;2024-02-16T15:08:38;14;9;6
44871;PMS7003;30602;51.060;17.226;2024-02-16T15:12:03;7;7;5
44871;PMS7003;30602;51.060;17.226;2024-02-16T15:15:31;7;7;5
44871;PMS7003;30602;51.060;17.226;2024-02-16T15:18:55;6;5;4
44871;PMS7003;30602;51.060;17.226;2024-02-16T15:22:18;7;7;6
44871;PMS7003;30602;51.060;17.226;2024-02-16T15:25:45;6;6;5
44871;PMS7003;30602;51.060;17.226;2024-02-16T15:29:10;9;8;6
44871;PMS7003;30602;51.060;17.226;2024-02-16T15:32:35;9;7;5
44871;PMS7003;30602;51.060;17.226;2024-02-16T15:36:00;8;7;5
44871;PMS7003;30602;51.060;17.226;2024-02-16T15:39:25;7;7;6
44871;PMS7003;30602;51.060;17.226;2024-02-16T15:46:28;10;9;6
44871;PMS7003;30602;51.060;17.226;2024-02-16T15:49:53;8;8;6
44871;PMS7003;30602;51.060;17.226;2024-02-16T15:53:45;9;9;6
44871;PMS7003;30602;51.060;17.226;2024-02-16T15:57:41;11;8;7
44871;PMS7003;30602;51.060;17.226;2024-02-16T16:01:06;7;6;5
44871;PMS7003;30602;51.060;17.226;2024-02-16T16:05:05;10;9;7
44871;PMS7003;30602;51.060;17.226;2024-02-16T16:08:45;9;9;6
44871;PMS7003;30602;51.060;17.226;2024-02-16T16:12:08;11;11;8
44871;PMS7003;30602;51.060;17.226;2024-02-16T16:15:30;10;9;7
44871;PMS7003;30602;51.060;17.226;2024-02-16T16:18:55;9;9;6
44871;PMS7003;30602;51.060;17.226;2024-02-16T16:22:18;10;8;6
44871;PMS7003;30602;51.060;17.226;2024-02-16T16:25:43;12;10;8
44871;PMS7003;30602;51.060;17.226;2024-02-16T16:29:09;14;13;9
44871;PMS7003;30602;51.060;17.226;2024-02-16T16:32:33;19;13;11
44871;PMS7003;30602;51.060;17.226;2024-02-16T16:36:25;11;10;7
44871;PMS7003;30602;51.060;17.226;2024-02-16T16:39:47;12;10;8
44871;PMS7003;30602;51.060;17.226;2024-02-16T16:43:12;13;12;8
44871;PMS7003;30602;51.060;17.226;2024-02-16T16:46:39;11;10;8
44871;PMS7003;30602;51.060;17.226;2024-02-16T16:50:37;13;12;8
44871;PMS7003;30602;51.060;17.226;2024-02-16T16:54:07;14;11;8
44871;PMS7003;30602;51.060;17.226;2024-02-16T16:57:34;14;13;9
44871;PMS7003;30602;51.060;17.226;2024-02-16T17:01:32;16;13;10
44871;PMS7003;30602;51.060;17.226;2024-02-16T17:05:00;12;11;9
44871;PMS7003;30602;51.060;17.226;2024-02-16T17:08:23;11;11;8
44871;PMS7003;30602;51.060;17.226;2024-02-16T17:12:21;16;12;8
44871;PMS7003;30602;51.060;17.226;2024-02-16T17:15:44;11;10;8
44871;PMS7003;30602;51.060;17.226;2024-02-16T17:19:07;16;13;9
44871;PMS7003;30602;51.060;17.226;2024-02-16T17:22:48;13;11;8
44871;PMS7003;30602;51.060;17.226;2024-02-16T17:26:13;12;8;7
44871;PMS7003;30602;51.060;17.226;2024-02-16T17:30:10;11;9;8
44871;PMS7003;30602;51.060;17.226;2024-02-16T17:34:03;14;12;8
44871;PMS7003;30602;51.060;17.226;2024-02-16T17:37:28;12;11;7
44871;PMS7003;30602;51.060;17.226;2024-02-16T17:41:29;20;18;11
44871;PMS7003;30602;51.060;17.226;2024-02-16T17:44:56;17;12;9
44871;PMS7003;30602;51.060;17.226;2024-02-16T17:48:19;12;11;9
44871;PMS7003;30602;51.060;17.226;2024-02-16T17:51:54;9;8;7
44871;PMS7003;30602;51.060;17.226;2024-02-16T17:55:16;15;13;9
44871;PMS7003;30602;51.060;17.226;2024-02-16T17:58:43;15;14;10
44871;PMS7003;30602;51.060;17.226;2024-02-16T18:02:40;10;9;8
44871;PMS7003;30602;51.060;17.226;2024-02-16T18:06:05;9;9;6
44871;PMS7003;30602;51.060;17.226;2024-02-16T18:09:27;14;12;10
44871;PMS7003;30602;51.060;17.226;2024-02-16T18:12:50;11;11;8
44871;PMS7003;30602;51.060;17.226;2024-02-16T18:16:42;14;10;9
44871;PMS7003;30602;51.060;17.226;2024-02-16T18:20:09;13;9;8
44871;PMS7003;30602;51.060;17.226;2024-02-16T18:23:36;13;10;9
44871;PMS7003;30602;51.060;17.226;2024-02-16T18:27:08;10;10;7
44871;PMS7003;30602;51.060;17.226;2024-02-16T18:30:35;16;12;9
44871;PMS7003;30602;51.060;17.226;2024-02-16T18:34:24;11;11;8
44871;PMS7003;30602;51.060;17.226;2024-02-16T18:38:18;11;10;8
44871;PMS7003;30602;51.060;17.226;2024-02-16T18:42:13;12;12;8
44871;PMS7003;30602;51.060;17.226;2024-02-16T18:46:09;12;11;8
44871;PMS7003;30602;51.060;17.226;2024-02-16T18:50:14;13;8;7
44871;PMS7003;30602;51.060;17.226;2024-02-16T18:53:39;17;11;9
44871;PMS7003;30602;51.060;17.226;2024-02-16T18:57:06;11;10;8
44871;PMS7003;30602;51.060;17.226;2024-02-16T19:00:31;13;12;8
44871;PMS7003;30602;51.060;17.226;2024-02-16T19:03:57;14;13;11
44871;PMS7003;30602;51.060;17.226;2024-02-16T19:07:22;22;18;12
44871;PMS7003;30602;51.060;17.226;2024-02-16T19:10:47;21;19;12
44871;PMS7003;30602;51.060;17.226;2024-02-16T19:14:17;21;16;9
44871;PMS7003;30602;51.060;17.226;2024-02-16T19:17:44;20;16;12
44871;PMS7003;30602;51.060;17.226;2024-02-16T19:21:06;14;13;9
44871;PMS7003;30602;51.060;17.226;2024-02-16T19:24:35;15;13;8
44871;PMS7003;30602;51.060;17.226;2024-02-16T19:28:29;20;15;10
44871;PMS7003;30602;51.060;17.226;2024-02-16T19:32:28;13;12;10
44871;PMS7003;30602;51.060;17.226;2024-02-16T19:35:51;15;13;10
44871;PMS7003;30602;51.060;17.226;2024-02-16T19:39:18;16;13;9
44871;PMS7003;30602;51.060;17.226;2024-02-16T19:42:41;15;12;9
44871;PMS7003;30602;51.060;17.226;2024-02-16T19:46:03;14;13;10
44871;PMS7003;30602;51.060;17.226;2024-02-16T19:49:41;16;16;10
44871;PMS7003;30602;51.060;17.226;2024-02-16T19:53:33;18;14;10
44871;PMS7003;30602;51.060;17.226;2024-02-16T19:57:28;16;12;9
44871;PMS7003;30602;51.060;17.226;2024-02-16T20:00:55;14;12;10
44871;PMS7003;30602;51.060;17.226;2024-02-16T20:04:24;15;13;9
44871;PMS7003;30602;51.060;17.226;2024-02-16T20:08:04;19;14;10
44871;PMS7003;30602;51.060;17.226;2024-02-16T20:11:34;14;12;9
44871;PMS7003;30602;51.060;17.226;2024-02-16T20:14:59;18;15;11
44871;PMS7003;30602;51.060;17.226;2024-02-16T20:18:23;14;12;8
44871;PMS7003;30602;51.060;17.226;2024-02-16T20:21:52;15;13;9
44871;PMS7003;30602;51.060;17.226;2024-02-16T20:25:24;14;12;9
44871;PMS7003;30602;51.060;17.226;2024-02-16T20:28:51;14;14;9
44871;PMS7003;30602;51.060;17.226;2024-02-16T20:32:13;14;12;10
44871;PMS7003;30602;51.060;17.226;2024-02-16T20:35:35;16;13;9
44871;PMS7003;30602;51.060;17.226;2024-02-16T20:38:59;19;14;10
44871;PMS7003;30602;51.060;17.226;2024-02-16T20:42:32;13;12;10
44871;PMS7003;30602;51.060;17.226;2024-02-16T20:45:57;13;13;11
44871;PMS7003;30602;51.060;17.226;2024-02-16T20:49:56;16;13;10
44871;PMS7003;30602;51.060;17.226;2024-02-16T20:53:19;17;15;13
44871;PMS7003;30602;51.060;17.226;2024-02-16T20:58:05;17;13;10
44871;PMS7003;30602;51.060;17.226;2024-02-16T21:01:26;15;15;11
44871;PMS7003;30602;51.060;17.226;2024-02-16T21:05:04;14;14;11
44871;PMS7003;30602;51.060;17.226;2024-02-16T21:08:38;19;14;11
44871;PMS7003;30602;51.060;17.226;2024-02-16T21:12:38;15;14;10
44871;PMS7003;30602;51.060;17.226;2024-02-16T21:16:09;17;16;11
44871;PMS7003;30602;51.060;17.226;2024-02-16T21:20:10;20;16;11
44871;PMS7003;30602;51.060;17.226;2024-02-16T21:23:39;15;14;11
44871;PMS7003;30602;51.060;17.226;2024-02-16T21:27:09;16;14;9
44871;PMS7003;30602;51.060;17.226;2024-02-16T21:30:36;16;13;10
44871;PMS7003;30602;51.060;17.226;2024-02-16T21:34:36;22;16;13
44871;PMS7003;30602;51.060;17.226;2024-02-16T21:37:57;15;13;10
44871;PMS7003;30602;51.060;17.226;2024-02-16T21:41:22;16;14;11
44871;PMS7003;30602;51.060;17.226;2024-02-16T21:44:47;17;14;11
44871;PMS7003;30602;51.060;17.226;2024-02-16T21:48:19;14;13;10
44871;PMS7003;30602;51.060;17.226;2024-02-16T21:51:45;15;13;9
44871;PMS7003;30602;51.060;17.226;2024-02-16T22:19:11;19;16;11
44871;PMS7003;30602;51.060;17.226;2024-02-16T22:22:25;15;14;10
44871;PMS7003;30602;51.060;17.226;2024-02-16T22:26:12;17;14;11
44871;PMS7003;30602;51.060;17.226;2024-02-16T22:30:07;18;13;10
44871;PMS7003;30602;51.060;17.226;2024-02-16T22:34:08;18;17;11
44871;PMS7003;30602;51.060;17.226;2024-02-16T22:37:34;17;14;10
44871;PMS7003;30602;51.060;17.226;2024-02-16T22:41:00;16;15;10
44871;PMS7003;30602;51.060;17.226;2024-02-16T22:44:24;17;15;12
44871;PMS7003;30602;51.060;17.226;2024-02-16T22:48:17;16;14;11
44871;PMS7003;30602;51.060;17.226;2024-02-16T22:51:41;13;12;9
44871;PMS7003;30602;51.060;17.226;2024-02-16T22:55:04;16;14;11
44871;PMS7003;30602;51.060;17.226;2024-02-16T22:58:28;17;17;13
44871;PMS7003;30602;51.060;17.226;2024-02-16T23:02:21;19;16;11
44871;PMS7003;30602;51.060;17.226;2024-02-16T23:06:15;16;14;11
44871;PMS7003;30602;51.060;17.226;2024-02-16T23:10:13;19;17;10
44871;PMS7003;30602;51.060;17.226;2024-02-16T23:13:39;17;15;12
44871;PMS7003;30602;51.060;17.226;2024-02-16T23:17:45;18;16;11
44871;PMS7003;30602;51.060;17.226;2024-02-16T23:21:04;16;16;11
44871;PMS7003;30602;51.060;17.226;2024-02-16T23:24:26;19;17;11
44871;PMS7003;30602;51.060;17.226;2024-02-16T23:27:49;23;20;15
44871;PMS7003;30602;51.060;17.226;2024-02-16T23:31:10;27;23;15
44871;PMS7003;30602;51.060;17.226;2024-02-16T23:35:08;24;19;15
44871;PMS7003;30602;51.060;17.226;2024-02-16T23:38:28;21;17;13
44871;PMS7003;30602;51.060;17.226;2024-02-16T23:41:50;19;17;13